Time;durP1;ratioP1;P1;durP2;ratioP2;P2;SDS_P1;SDS_P2;PMS_P1;PMS_P2;Temp;Humidity;BMP_temperature;BMP_pressure;BME280_temperature;BME280_humidity;BME280_pressure;Samples;Min_cycle;Max_cycle;Signal;HPM_P1;HPM_P2
2023/04/12 07:33:55;;;;;;;11.97;6.43;;;;;;;9.30;82.07;93775.91;4545404;22;20845;-79
2023/04/12 07:36:22;;;;;;;7.30;6.30;;;;;;;9.31;83.14;93776.69;5009860;28;20232;-79
2023/04/12 07:38:53;;;;;;;7.30;5.43;;;;;;;9.30;82.89;93799.25;4991316;28;20200;-79
2023/04/12 07:41:20;;;;;;;10.10;6.00;;;;;;;9.32;83.55;93763.50;4987031;28;20666;-79
2023/04/12 07:43:47;;;;;;;7.60;5.00;;;;;;;9.47;82.47;93770.75;4992337;28;20203;-80
2023/04/12 07:46:14;;;;;;;7.10;5.20;;;;;;;9.49;80.31;93763.56;4997855;28;20226;-79
2023/04/12 07:48:42;;;;;;;6.07;4.57;;;;;;;9.72;78.46;93797.16;4993621;28;20278;-78
2023/04/12 07:51:10;;;;;;;7.60;4.77;;;;;;;9.69;77.76;93784.66;4991457;28;20738;-82
2023/04/12 07:53:37;;;;;;;6.30;4.03;;;;;;;9.74;76.33;93769.16;4992793;28;20206;-79
2023/04/12 07:56:05;;;;;;;6.00;4.87;;;;;;;9.71;75.61;93769.63;4992531;28;20207;-79
2023/04/12 07:58:34;;;;;;;8.63;4.30;;;;;;;9.82;74.41;93783.56;4992690;28;20219;-79
2023/04/12 08:01:01;;;;;;;7.70;5.00;;;;;;;9.95;75.07;93772.88;4992366;28;20204;-79
2023/04/12 08:03:28;;;;;;;5.87;4.30;;;;;;;9.77;73.84;93766.09;4993445;28;20964;-78
2023/04/12 08:05:54;;;;;;;5.63;4.47;;;;;;;9.69;75.21;93751.72;4992629;28;20208;-81
2023/04/12 08:08:25;;;;;;;5.50;4.10;;;;;;;9.66;75.20;93759.19;4991823;28;20211;-79
2023/04/12 08:10:52;;;;;;;5.13;4.33;;;;;;;9.78;73.95;93766.91;4987859;28;20716;-78
2023/04/12 08:13:20;;;;;;;5.57;4.20;;;;;;;9.73;72.27;93736.44;4990261;28;20227;-78
2023/04/12 08:15:47;;;;;;;7.83;4.20;;;;;;;9.76;71.38;93771.50;4986552;28;20751;-78
2023/04/12 08:18:13;;;;;;;8.30;4.70;;;;;;;9.80;70.72;93764.84;4987749;28;20648;-78
2023/04/12 08:20:42;;;;;;;6.13;4.37;;;;;;;9.86;70.76;93769.91;4985767;28;20979;-78
2023/04/12 08:23:10;;;;;;;5.23;3.90;;;;;;;9.77;69.54;93762.72;4988103;28;20227;-78
2023/04/12 08:25:39;;;;;;;4.87;3.37;;;;;;;9.74;68.82;93748.41;4988790;28;20197;-78
2023/04/12 08:28:07;;;;;;;4.10;3.20;;;;;;;9.92;69.13;93755.97;4990744;28;20290;-78
2023/04/12 08:30:34;;;;;;;4.23;3.40;;;;;;;10.08;68.53;93754.38;4986119;28;20290;-77
2023/04/12 08:33:01;;;;;;;6.30;3.80;;;;;;;10.15;68.65;93760.25;4985066;28;20216;-78
2023/04/12 08:35:28;;;;;;;5.43;3.50;;;;;;;10.24;67.64;93751.81;4990035;28;20235;-77
2023/04/12 08:37:55;;;;;;;5.03;3.20;;;;;;;10.42;67.94;93750.00;4990502;28;20208;-78
2023/04/12 08:40:22;;;;;;;8.10;3.47;;;;;;;10.56;65.78;93746.03;4988626;28;20259;-77
2023/04/12 08:42:53;;;;;;;5.00;4.13;;;;;;;10.81;64.92;93743.75;4985356;28;20200;-78
2023/04/12 08:45:23;;;;;;;4.50;3.13;;;;;;;10.73;64.99;93742.38;4988943;28;20199;-78
2023/04/12 08:47:49;;;;;;;5.80;3.30;;;;;;;10.72;63.54;93743.38;4987159;28;20549;-78
2023/04/12 08:50:17;;;;;;;3.50;3.17;;;;;;;10.81;62.48;93741.16;4990007;28;20228;-79
2023/04/12 08:52:44;;;;;;;4.47;3.00;;;;;;;10.94;63.60;93750.41;4985548;28;20988;-77
2023/04/12 08:55:11;;;;;;;5.83;3.43;;;;;;;11.06;62.75;93746.66;4988149;28;20226;-78
2023/04/12 08:57:41;;;;;;;3.40;3.03;;;;;;;11.07;62.89;93760.44;4983187;28;20201;-78
2023/04/12 09:00:12;;;;;;;4.20;3.47;;;;;;;11.05;64.12;93745.09;4990720;28;20200;-78
2023/04/12 09:02:41;;;;;;;6.87;3.37;;;;;;;11.14;63.74;93748.03;4989447;28;20203;-79
2023/04/12 09:05:09;;;;;;;5.20;3.20;;;;;;;11.31;62.48;93748.75;4985778;28;20224;-78
2023/04/12 09:07:36;;;;;;;4.53;3.50;;;;;;;11.41;63.20;93746.25;4988024;28;20663;-79
2023/04/12 09:10:04;;;;;;;3.60;2.90;;;;;;;11.51;62.96;93748.16;4988404;28;20578;-80
2023/04/12 09:12:31;;;;;;;3.67;3.00;;;;;;;11.48;63.51;93744.25;4990049;28;20709;-78
2023/04/12 09:15:11;;;;;;;5.17;3.10;;;;;;;11.58;59.69;93749.53;4983157;28;20219;-78
2023/04/12 09:17:39;;;;;;;4.20;2.97;;;;;;;11.50;58.55;93731.75;4986613;28;20609;-78
2023/04/12 09:20:24;;;;;;;3.43;2.53;;;;;;;11.58;58.42;93731.31;4987166;28;20211;-78
2023/04/12 09:22:54;;;;;;;5.77;2.77;;;;;;;11.64;59.32;93745.16;4986536;28;20202;-78
2023/04/12 09:25:36;;;;;;;5.37;2.97;;;;;;;11.63;57.70;93730.59;4987665;28;20196;-78
2023/04/12 09:28:05;;;;;;;7.23;3.20;;;;;;;11.82;59.02;93724.00;4988276;28;20223;-79
2023/04/12 09:30:41;;;;;;;4.77;2.40;;;;;;;11.72;55.33;93710.91;4990102;28;20247;-78
2023/04/12 09:33:14;;;;;;;4.60;2.60;;;;;;;11.85;55.15;93715.69;4988352;28;20659;-78
2023/04/12 09:35:41;;;;;;;3.63;2.60;;;;;;;12.04;55.38;93714.28;4989995;28;21040;-83
2023/04/12 09:38:09;;;;;;;5.10;3.00;;;;;;;12.24;54.86;93717.03;4989251;28;20303;-78
2023/04/12 09:40:36;;;;;;;4.80;2.63;;;;;;;12.26;54.00;93709.75;4982126;28;20193;-78
2023/04/12 09:43:04;;;;;;;6.20;3.20;;;;;;;12.21;53.13;93682.88;4985330;28;20200;-79
2023/04/12 09:45:34;;;;;;;3.40;2.83;;;;;;;12.58;52.85;93703.69;4984105;28;20212;-77
2023/04/12 09:48:01;;;;;;;5.23;3.30;;;;;;;12.69;54.37;93702.69;4989459;28;20211;-78
2023/04/12 09:50:32;;;;;;;7.07;3.00;;;;;;;12.77;56.14;93696.97;4988096;28;20737;-79
2023/04/12 09:53:00;;;;;;;6.60;2.90;;;;;;;12.97;55.84;93692.63;4988398;28;20628;-79
2023/04/12 09:55:30;;;;;;;4.77;3.13;;;;;;;13.38;54.31;93695.38;4989946;28;20211;-79
2023/04/12 09:58:02;;;;;;;2.60;2.20;;;;;;;13.61;50.15;93719.19;4987244;28;20283;-78
2023/04/12 10:00:32;;;;;;;9.47;2.97;;;;;;;13.64;47.53;93699.59;4985785;28;20224;-79
2023/04/12 10:03:01;;;;;;;4.23;2.30;;;;;;;13.78;45.72;93698.03;4987978;28;20200;-80
2023/04/12 10:05:28;;;;;;;4.67;2.07;;;;;;;13.64;42.70;93700.38;4989510;28;20200;-79
2023/04/12 10:07:57;;;;;;;3.50;1.80;;;;;;;13.57;40.15;93701.66;4988896;28;20196;-78
2023/04/12 10:10:24;;;;;;;4.07;1.90;;;;;;;13.51;40.22;93685.22;4989813;28;20659;-80
2023/04/12 10:12:51;;;;;;;2.50;1.97;;;;;;;13.51;40.93;93687.81;4986911;28;20204;-80
2023/04/12 10:15:20;;;;;;;2.13;1.70;;;;;;;13.23;41.40;93680.47;4987991;28;20200;-79
2023/04/12 10:17:49;;;;;;;2.53;1.97;;;;;;;13.15;41.15;93711.50;4990038;28;20619;-78
2023/04/12 10:20:18;;;;;;;5.77;2.20;;;;;;;13.05;41.96;93680.91;4983871;28;20200;-79
2023/04/12 10:22:47;;;;;;;6.83;2.40;;;;;;;13.35;42.39;93686.25;4985854;28;20192;-78
2023/04/12 10:25:17;;;;;;;4.27;2.20;;;;;;;13.75;41.57;93674.25;4991195;28;20199;-78
2023/04/12 10:27:46;;;;;;;3.93;2.00;;;;;;;13.93;41.06;93684.97;4987309;28;20207;-79
2023/04/12 10:30:21;;;;;;;6.20;3.00;;;;;;;14.23;41.18;93690.16;4983806;28;20228;-79
2023/04/12 10:32:48;;;;;;;4.43;2.30;;;;;;;14.53;40.60;93673.66;4986685;28;20655;-80
2023/04/12 10:35:17;;;;;;;4.80;3.60;;;;;;;14.70;40.15;93673.34;4983620;28;20809;-80
2023/04/12 10:38:00;;;;;;;7.73;3.13;;;;;;;15.12;38.36;93691.25;4985584;28;20633;-79
2023/04/12 10:40:27;;;;;;;2.43;1.80;;;;;;;15.22;35.18;93676.25;4986549;28;20678;-78
2023/04/12 10:43:27;;;;;;;2.63;2.13;;;;;;;15.47;36.41;93685.81;4982757;28;20200;-78
2023/04/12 10:46:03;;;;;;;3.47;2.70;;;;;;;15.41;34.90;93688.72;4985339;28;20197;-85
2023/04/12 10:48:31;;;;;;;4.10;1.90;;;;;;;15.13;32.92;93679.69;4984258;28;20193;-84
2023/04/12 10:51:22;;;;;;;3.00;1.80;;;;;;;15.19;33.83;93696.94;4991524;28;20227;-85
2023/04/12 10:53:51;;;;;;;3.00;1.57;;;;;;;15.37;33.65;93675.38;4991283;28;20200;-82
2023/04/12 10:56:39;;;;;;;2.17;1.77;;;;;;;15.76;34.31;93667.53;4990487;28;20196;-82
2023/04/12 10:59:07;;;;;;;5.60;2.97;;;;;;;16.22;34.07;93688.94;4989125;28;20201;-85
2023/04/12 11:01:35;;;;;;;5.33;2.00;;;;;;;16.53;30.50;93678.94;4991079;28;20780;-82
2023/04/12 11:04:13;;;;;;;4.50;1.73;;;;;;;16.22;28.72;93699.44;4989968;28;20215;-81
2023/04/12 11:07:01;;;;;;;5.60;1.70;;;;;;;15.39;29.59;93659.41;4988802;28;20296;-82
2023/04/12 11:09:30;;;;;;;5.83;1.70;;;;;;;15.04;30.70;93648.09;4985303;28;20204;-84
2023/04/12 11:11:59;;;;;;;5.43;2.30;;;;;;;15.08;31.13;93696.22;4992796;28;20220;-82
2023/04/12 11:14:30;;;;;;;4.90;2.20;;;;;;;15.25;31.91;93675.72;4985165;28;20197;-82
2023/04/12 11:17:22;;;;;;;3.87;2.03;;;;;;;15.54;31.54;93672.44;4985718;28;20192;-82
2023/04/12 11:20:00;;;;;;;4.07;1.80;;;;;;;15.62;31.73;93669.22;4991279;28;20196;-82
2023/04/12 11:22:31;;;;;;;5.23;2.40;;;;;;;15.90;32.31;93668.50;4986966;28;20227;-82
2023/04/12 11:24:59;;;;;;;3.40;2.30;;;;;;;15.93;30.71;93670.56;4989093;28;20197;-81
2023/04/12 11:27:30;;;;;;;3.47;1.87;;;;;;;16.12;29.93;93670.66;4986764;28;20208;-80
2023/04/12 11:29:58;;;;;;;3.20;1.80;;;;;;;15.83;31.15;93662.78;4978903;28;20567;-82
2023/04/12 11:32:27;;;;;;;2.40;1.53;;;;;;;15.95;31.58;93657.19;4985961;28;20250;-82
2023/04/12 11:34:56;;;;;;;1.60;1.50;;;;;;;15.90;28.78;93666.66;4988393;28;20220;-84
2023/04/12 11:37:23;;;;;;;2.13;1.67;;;;;;;15.42;29.67;93661.47;4984623;28;20196;-81
2023/04/12 11:39:53;;;;;;;6.80;2.10;;;;;;;15.49;30.01;93654.13;4988517;28;20200;-81
2023/04/12 11:42:23;;;;;;;7.83;1.87;;;;;;;15.82;31.08;93651.53;4988190;28;20196;-81
2023/04/12 11:44:51;;;;;;;4.47;1.80;;;;;;;16.31;29.93;93663.66;4989447;28;20251;-80
2023/04/12 11:47:20;;;;;;;4.37;2.00;;;;;;;16.27;29.36;93673.16;4991684;28;20212;-80
2023/04/12 11:49:49;;;;;;;4.23;2.00;;;;;;;15.81;29.89;93664.91;4995943;28;20227;-81
2023/04/12 11:52:17;;;;;;;4.20;1.90;;;;;;;15.91;30.94;93662.19;4992595;28;20652;-82
2023/04/12 11:54:45;;;;;;;8.63;2.10;;;;;;;16.33;32.01;93669.44;4993537;28;20200;-83
2023/04/12 11:57:15;;;;;;;4.10;1.87;;;;;;;16.87;30.22;93671.75;4989141;28;20232;-82
2023/04/12 11:59:46;;;;;;;4.33;1.60;;;;;;;17.29;30.53;93669.09;4988444;28;20197;-79
2023/04/12 12:02:14;;;;;;;3.23;1.90;;;;;;;17.48;29.85;93667.28;4973871;28;20248;-79
2023/04/12 12:04:45;;;;;;;6.37;2.07;;;;;;;17.65;29.33;93669.44;4973845;28;20239;-79
2023/04/12 12:07:13;;;;;;;5.23;2.00;;;;;;;17.57;28.83;93657.69;4973530;28;20201;-78
2023/04/12 12:09:41;;;;;;;2.40;2.00;;;;;;;17.35;29.89;93672.44;4989637;28;20216;-78
2023/04/12 12:12:10;;;;;;;4.73;1.80;;;;;;;17.36;29.72;93681.91;4993552;28;20282;-80
2023/04/12 12:14:41;;;;;;;2.70;1.57;;;;;;;16.92;29.39;93669.84;4993280;28;20645;-79
2023/04/12 12:17:12;;;;;;;3.80;1.70;;;;;;;16.99;29.56;93670.31;4993346;28;20188;-79
2023/04/12 12:19:40;;;;;;;2.87;1.80;;;;;;;17.16;30.20;93667.19;4991459;28;20197;-77
2023/04/12 12:22:31;;;;;;;4.60;1.87;;;;;;;17.22;29.35;93662.66;4980979;28;20659;-78
2023/04/12 12:25:00;;;;;;;2.20;1.80;;;;;;;17.17;29.79;93657.47;4981036;28;20674;-80
2023/04/12 12:27:35;;;;;;;2.90;2.10;;;;;;;17.17;29.37;93671.38;4992848;28;20196;-79
2023/04/12 12:30:04;;;;;;;5.70;1.77;;;;;;;17.36;28.84;93663.50;4993251;28;20195;-79
2023/04/12 12:32:35;;;;;;;4.78;1.60;;;;;;;17.65;28.46;93661.56;4991198;28;20208;-78
2023/04/12 12:35:03;;;;;;;2.88;1.63;;;;;;;17.69;29.34;93657.25;4988144;28;20251;-78
2023/04/12 12:37:30;;;;;;;3.22;1.85;;;;;;;18.31;28.40;93660.47;4978546;28;20200;-79
2023/04/12 12:40:13;;;;;;;2.80;2.00;;;;;;;18.03;28.99;93688.56;4981652;28;20197;-79
2023/04/12 12:42:54;;;;;;;4.85;1.88;;;;;;;18.07;28.66;93657.97;4986397;28;20634;-79
2023/04/12 12:45:23;;;;;;;3.67;1.70;;;;;;;18.55;27.08;93659.28;4978427;28;20269;-80
2023/04/12 12:47:52;;;;;;;4.82;1.88;;;;;;;18.24;27.64;93678.50;4985549;28;20223;-79
2023/04/12 12:50:21;;;;;;;3.40;1.60;;;;;;;18.29;27.34;93679.19;4985936;28;20196;-78
2023/04/12 12:52:48;;;;;;;3.85;1.90;;;;;;;18.14;27.84;93674.19;4972570;28;20303;-79
2023/04/12 12:55:20;;;;;;;3.08;1.67;;;;;;;18.29;26.88;93671.31;4977464;28;20406;-80
2023/04/12 12:57:47;;;;;;;5.63;2.08;;;;;;;18.02;27.10;93677.25;4992618;28;20705;-79
2023/04/12 13:00:15;;;;;;;3.33;2.08;;;;;;;18.54;27.40;93680.63;4989742;28;20223;-80
2023/04/12 13:02:47;;;;;;;3.38;1.88;;;;;;;18.80;27.45;93673.03;4981340;28;20577;-78
2023/04/12 13:05:14;;;;;;;2.72;2.15;;;;;;;19.34;26.76;93698.53;4979880;28;20643;-79
2023/04/12 13:07:41;;;;;;;3.03;1.60;;;;;;;18.88;26.28;93669.72;4994112;28;20196;-81
2023/04/12 13:10:09;;;;;;;2.33;1.70;;;;;;;18.41;27.05;93682.13;4993270;28;20232;-81
2023/04/12 13:12:38;;;;;;;5.00;1.88;;;;;;;18.02;27.30;93679.91;4992630;28;20256;-81
2023/04/12 13:15:06;;;;;;;2.50;1.63;;;;;;;18.23;27.62;93680.34;4986625;28;20211;-77
2023/04/12 13:17:33;;;;;;;2.10;1.70;;;;;;;18.72;27.51;93671.88;4984600;28;20295;-79
2023/04/12 13:20:03;;;;;;;2.20;1.75;;;;;;;18.67;27.37;93664.06;4980353;28;20200;-79
2023/04/12 13:22:30;;;;;;;2.90;2.00;;;;;;;18.79;27.58;93669.59;4980800;28;20258;-79
2023/04/12 13:24:56;;;;;;;5.63;2.17;;;;;;;18.75;28.48;93686.28;4985651;28;20196;-77
2023/04/12 13:27:23;;;;;;;5.18;2.40;;;;;;;18.57;28.62;93682.66;4986333;28;20192;-79
2023/04/12 13:29:50;;;;;;;3.53;2.10;;;;;;;18.84;28.40;93693.22;4976566;28;20196;-78
2023/04/12 13:32:17;;;;;;;2.65;2.10;;;;;;;18.51;28.15;93681.97;4983647;28;20216;-78
2023/04/12 13:34:44;;;;;;;2.13;1.50;;;;;;;17.95;28.23;93689.97;4988335;28;20226;-78
2023/04/12 13:37:12;;;;;;;2.30;1.60;;;;;;;17.09;29.85;93684.34;4983335;28;20200;-78
2023/04/12 13:39:40;;;;;;;3.23;1.90;;;;;;;16.94;30.50;93675.59;4982229;28;20294;-79
2023/04/12 13:42:07;;;;;;;3.30;2.20;;;;;;;17.08;30.80;93667.84;4988177;28;20275;-79
2023/04/12 13:44:34;;;;;;;2.23;1.83;;;;;;;17.21;30.79;93682.88;4987771;28;20196;-79
2023/04/12 13:47:00;;;;;;;2.63;2.20;;;;;;;17.42;30.55;93678.13;4983167;28;20200;-79
2023/04/12 13:49:27;;;;;;;2.67;2.03;;;;;;;17.08;30.35;93683.59;4982569;28;20204;-78
2023/04/12 13:51:55;;;;;;;4.43;1.70;;;;;;;16.31;31.42;93668.91;4991778;28;20220;-80
2023/04/12 13:54:23;;;;;;;4.53;2.20;;;;;;;16.31;32.12;93671.53;4981494;28;20193;-78
2023/04/12 13:56:50;;;;;;;4.23;2.00;;;;;;;16.67;31.28;93674.59;4972808;28;20197;-79
2023/04/12 13:59:19;;;;;;;3.17;2.07;;;;;;;16.92;30.64;93677.72;4988346;28;20216;-80
2023/04/12 14:01:47;;;;;;;3.20;2.10;;;;;;;17.10;30.99;93683.28;4989325;28;20199;-80
2023/04/12 14:04:14;;;;;;;8.40;2.07;;;;;;;17.36;30.12;93685.31;4983426;28;20212;-80
2023/04/12 14:06:41;;;;;;;2.70;1.97;;;;;;;17.63;28.76;93695.22;4998914;28;20739;-80
2023/04/12 14:09:08;;;;;;;3.23;2.17;;;;;;;17.69;28.63;93672.28;4988555;28;20224;-81
2023/04/12 14:11:49;;;;;;;4.60;2.30;;;;;;;17.35;28.24;93673.22;4990607;28;20220;-82
2023/04/12 14:14:16;;;;;;;3.60;2.50;;;;;;;17.59;29.30;93686.34;4995477;28;20658;-84
2023/04/12 14:16:43;;;;;;;2.97;2.00;;;;;;;17.69;28.13;93686.19;4987143;28;20662;-81
2023/04/12 14:19:10;;;;;;;5.47;2.57;;;;;;;17.44;28.40;93655.00;4978519;28;20204;-83
2023/04/12 14:21:37;;;;;;;3.17;2.57;;;;;;;17.14;28.96;93650.94;4977985;28;20208;-82
2023/04/12 14:24:05;;;;;;;5.87;3.40;;;;;;;17.28;29.74;93670.19;4980272;28;20193;-79
2023/04/12 14:26:32;;;;;;;5.47;2.50;;;;;;;17.49;29.55;93694.31;4986290;28;20208;-84
2023/04/12 14:29:01;;;;;;;4.93;2.60;;;;;;;17.38;29.55;93661.38;4986562;28;20211;-81
2023/04/12 14:31:28;;;;;;;6.20;2.30;;;;;;;17.33;29.96;93683.25;4995150;28;20273;-83
2023/04/12 14:33:55;;;;;;;3.67;2.30;;;;;;;16.88;31.09;93684.59;5002789;28;20240;-83
2023/04/12 14:36:29;;;;;;;6.30;2.60;;;;;;;16.94;31.45;93698.47;4990053;28;20637;-84
2023/04/12 14:38:57;;;;;;;1.90;1.70;;;;;;;16.70;31.01;93697.66;4985517;28;20262;-81
2023/04/12 14:41:23;;;;;;;1.53;1.43;;;;;;;16.25;31.70;93704.09;5001969;28;20275;-84
2023/04/12 14:43:50;;;;;;;4.23;1.90;;;;;;;15.95;32.71;93702.53;4990015;28;20538;-82
2023/04/12 14:46:19;;;;;;;2.63;1.70;;;;;;;15.99;32.25;93702.75;4989506;28;20200;-82
2023/04/12 14:48:46;;;;;;;2.77;2.23;;;;;;;16.05;32.56;93699.81;4984954;28;20200;-81
2023/04/12 14:51:13;;;;;;;3.23;2.40;;;;;;;16.10;32.38;93719.97;4978323;28;20624;-83
2023/04/12 14:53:41;;;;;;;7.47;2.30;;;;;;;16.16;32.03;93703.91;4977810;28;20232;-82
2023/04/12 14:56:17;;;;;;;4.20;1.90;;;;;;;16.08;32.21;93714.19;4991905;28;20628;-81
2023/04/12 14:58:44;;;;;;;7.20;2.07;;;;;;;16.17;32.51;93707.31;4987548;28;20670;-81
2023/04/12 15:01:11;;;;;;;2.80;1.83;;;;;;;15.98;32.75;93725.56;4986814;28;20220;-80
2023/04/12 15:03:40;;;;;;;2.10;1.67;;;;;;;15.84;32.35;93720.16;4991978;28;20609;-81
2023/04/12 15:06:08;;;;;;;5.07;1.90;;;;;;;15.39;33.62;93709.94;4994489;28;20204;-80
2023/04/12 15:08:40;;;;;;;3.87;2.10;;;;;;;15.35;33.92;93709.69;4994491;28;20207;-80
2023/04/12 15:11:09;;;;;;;6.93;2.53;;;;;;;15.58;33.95;93708.28;4992082;28;20815;-80
2023/04/12 15:13:38;;;;;;;3.53;2.23;;;;;;;15.73;33.51;93718.66;4977840;28;20275;-80
2023/04/12 15:16:07;;;;;;;3.43;2.07;;;;;;;15.79;33.83;93720.19;4987994;28;20557;-80
2023/04/12 15:18:36;;;;;;;4.53;2.40;;;;;;;15.79;33.45;93728.03;4985067;28;20229;-80
2023/04/12 15:21:07;;;;;;;5.60;2.17;;;;;;;16.01;33.35;93727.63;4985435;28;20203;-80
2023/04/12 15:23:34;;;;;;;4.30;2.27;;;;;;;16.22;32.85;93729.03;4978505;28;20554;-80
2023/04/12 15:26:01;;;;;;;4.30;2.70;;;;;;;16.00;32.38;93699.84;4980267;28;20671;-80
2023/04/12 15:28:28;;;;;;;7.07;2.80;;;;;;;16.39;31.90;93736.50;4994215;28;20200;-81
2023/04/12 15:30:55;;;;;;;7.07;2.20;;;;;;;16.48;31.87;93747.94;4987660;28;20204;-80
2023/04/12 15:33:22;;;;;;;6.50;2.43;;;;;;;16.80;31.53;93747.41;4991284;28;20228;-80
2023/04/12 15:35:50;;;;;;;3.40;2.40;;;;;;;16.62;31.47;93751.53;4980935;28;20196;-80
2023/04/12 15:38:18;;;;;;;4.70;2.10;;;;;;;15.98;32.17;93751.78;4984857;28;20199;-80
2023/04/12 15:40:45;;;;;;;3.13;2.00;;;;;;;15.59;33.28;93737.88;4993005;28;20569;-84
2023/04/12 15:43:12;;;;;;;4.33;2.10;;;;;;;15.26;33.44;93713.94;4981019;28;20200;-82
2023/04/12 15:45:41;;;;;;;3.07;1.90;;;;;;;15.53;32.96;93750.22;4993636;28;20673;-83
2023/04/12 15:48:08;;;;;;;3.97;2.60;;;;;;;15.13;33.16;93724.19;4977878;28;20698;-80
2023/04/12 15:50:35;;;;;;;5.33;2.30;;;;;;;15.08;33.87;93739.91;4983423;28;20197;-80
2023/04/12 15:53:02;;;;;;;4.07;2.23;;;;;;;14.82;34.88;93741.06;4990559;28;20216;-80
2023/04/12 15:55:30;;;;;;;3.53;2.50;;;;;;;15.05;34.69;93753.53;4983294;28;20247;-79
2023/04/12 15:57:57;;;;;;;8.20;2.80;;;;;;;15.23;35.37;93752.97;4977101;28;20200;-81
2023/04/12 16:00:25;;;;;;;4.37;2.67;;;;;;;15.19;34.86;93751.91;4974937;28;20624;-80
2023/04/12 16:02:53;;;;;;;3.60;2.20;;;;;;;15.08;34.78;93740.72;4974962;28;20200;-81
2023/04/12 16:05:20;;;;;;;3.17;2.20;;;;;;;15.13;33.94;93755.59;4987174;28;20286;-81
2023/04/12 16:07:49;;;;;;;10.40;2.30;;;;;;;14.85;34.90;93761.44;4979671;28;20208;-80
2023/04/12 16:10:19;;;;;;;4.50;3.20;;;;;;;14.41;35.67;93756.81;4988177;28;20666;-81
2023/04/12 16:12:48;;;;;;;4.23;2.23;;;;;;;13.94;36.86;93757.06;4985180;28;20279;-80
2023/04/12 16:15:16;;;;;;;5.37;3.03;;;;;;;13.74;38.09;93762.25;4992925;28;20283;-82
2023/04/12 16:17:43;;;;;;;5.00;2.80;;;;;;;13.52;38.20;93754.66;4984948;28;20189;-82
2023/04/12 16:20:15;;;;;;;5.77;3.40;;;;;;;13.54;38.64;93760.41;4984926;28;20209;-81
2023/04/12 16:22:42;;;;;;;2.90;2.50;;;;;;;13.28;38.48;93742.31;4989636;28;20230;-80
2023/04/12 16:25:10;;;;;;;3.87;2.53;;;;;;;13.14;39.07;93749.84;4993123;28;20199;-82
2023/04/12 16:27:37;;;;;;;6.17;3.10;;;;;;;13.03;39.53;93754.22;4978653;28;20316;-82
2023/04/12 16:30:09;;;;;;;3.97;2.63;;;;;;;12.79;40.02;93741.81;4985520;28;20200;-80
2023/04/12 16:32:36;;;;;;;5.57;3.40;;;;;;;12.77;40.25;93757.72;4993187;28;20204;-81
2023/04/12 16:35:03;;;;;;;5.60;3.00;;;;;;;12.56;40.85;93771.69;4985911;28;20256;-81
2023/04/12 16:37:30;;;;;;;5.60;3.80;;;;;;;12.57;41.24;93767.25;4984277;28;20207;-81
2023/04/12 16:39:57;;;;;;;7.03;4.10;;;;;;;12.39;41.76;93763.22;4992926;28;20210;-80
2023/04/12 16:42:27;;;;;;;13.83;4.00;;;;;;;12.33;42.19;93777.25;4992821;28;20231;-81
2023/04/12 16:44:54;;;;;;;7.20;3.37;;;;;;;12.32;42.47;93784.28;4976527;28;20271;-81
2023/04/12 16:47:23;;;;;;;7.13;4.00;;;;;;;12.26;42.26;93777.50;4973598;28;20682;-79
2023/04/12 16:49:50;;;;;;;7.50;4.67;;;;;;;12.32;42.30;93780.91;4976097;28;20672;-80
2023/04/12 16:52:16;;;;;;;7.93;3.80;;;;;;;12.22;42.38;93784.22;4973264;28;20221;-81
2023/04/12 16:54:43;;;;;;;4.63;3.20;;;;;;;12.03;42.93;93779.66;5002552;28;20608;-83
2023/04/12 16:57:10;;;;;;;5.90;3.50;;;;;;;11.94;43.13;93790.50;4995794;28;20192;-77
2023/04/12 16:59:38;;;;;;;4.00;3.20;;;;;;;11.85;43.33;93796.41;4979643;28;20192;-78
2023/04/12 17:02:05;;;;;;;7.07;3.43;;;;;;;11.74;43.75;93792.94;4991554;28;20253;-80
2023/04/12 17:04:33;;;;;;;6.37;3.60;;;;;;;11.55;43.82;93780.44;5000134;28;20281;-80
2023/04/12 17:07:01;;;;;;;5.67;3.33;;;;;;;11.51;44.36;93792.41;5008559;28;20951;-81
2023/04/12 17:09:28;;;;;;;7.73;3.50;;;;;;;11.46;44.57;93803.53;4989278;28;20651;-81
2023/04/12 17:11:55;;;;;;;6.73;3.90;;;;;;;11.46;44.78;93800.16;4983906;28;20204;-80
2023/04/12 17:14:22;;;;;;;5.03;3.60;;;;;;;11.40;45.08;93807.88;4991143;28;20216;-80
2023/04/12 17:16:49;;;;;;;9.57;4.80;;;;;;;11.34;45.27;93811.44;4974922;28;20641;-80
2023/04/12 17:19:16;;;;;;;4.87;3.50;;;;;;;11.30;45.09;93812.19;4986761;28;20199;-81
2023/04/12 17:21:45;;;;;;;10.23;3.30;;;;;;;11.23;45.64;93814.19;4992270;28;20196;-80
2023/04/12 17:24:12;;;;;;;4.40;3.47;;;;;;;11.08;46.00;93809.56;4977965;28;20192;-80
2023/04/12 17:26:39;;;;;;;7.33;4.40;;;;;;;10.89;46.47;93804.91;4981017;28;20227;-81
2023/04/12 17:29:06;;;;;;;10.80;5.90;;;;;;;11.02;46.46;93827.97;4985281;28;20201;-82
2023/04/12 17:31:33;;;;;;;15.63;9.13;;;;;;;11.00;46.92;93837.81;4972822;28;20201;-81
2023/04/12 17:34:02;;;;;;;16.37;9.47;;;;;;;10.85;47.53;93817.59;4975351;28;20232;-80
2023/04/12 17:36:30;;;;;;;17.67;10.17;;;;;;;10.92;47.40;93831.22;4973287;28;20204;-82
2023/04/12 17:38:59;;;;;;;16.53;10.40;;;;;;;10.95;47.80;93838.53;4988904;28;20227;-82
2023/04/12 17:41:26;;;;;;;17.33;9.97;;;;;;;10.94;47.75;93841.41;4989983;28;20196;-81
2023/04/12 17:43:53;;;;;;;16.23;9.40;;;;;;;10.92;47.39;93843.44;4979909;28;20200;-81
2023/04/12 17:46:20;;;;;;;14.80;8.73;;;;;;;10.88;47.80;93848.31;4986471;28;20219;-82
2023/04/12 17:48:47;;;;;;;16.67;9.37;;;;;;;10.82;47.90;93851.88;4992417;28;20192;-82
2023/04/12 17:51:14;;;;;;;24.20;9.77;;;;;;;10.83;48.19;93856.03;4991840;28;20245;-81
2023/04/12 17:53:42;;;;;;;31.10;15.83;;;;;;;10.75;48.40;93859.06;4999676;28;20277;-82
2023/04/12 17:56:10;;;;;;;30.40;11.70;;;;;;;10.71;48.55;93857.94;4981487;28;20188;-81
2023/04/12 17:58:36;;;;;;;16.70;9.40;;;;;;;10.67;48.24;93860.25;4993694;28;20196;-82
2023/04/12 18:01:03;;;;;;;21.77;11.47;;;;;;;10.64;48.95;93863.31;4998936;28;20227;-82
2023/04/12 18:03:31;;;;;;;18.77;10.13;;;;;;;10.69;48.62;93863.41;4994892;28;20203;-81
2023/04/12 18:05:59;;;;;;;14.97;7.80;;;;;;;10.66;47.58;93865.66;4972228;28;20288;-81
2023/04/12 18:08:27;;;;;;;22.70;11.33;;;;;;;10.58;48.51;93863.47;4978677;28;20215;-81
2023/04/12 18:10:54;;;;;;;27.73;15.93;;;;;;;10.60;47.77;93875.22;4991630;28;20234;-81
2023/04/12 18:13:22;;;;;;;24.97;13.50;;;;;;;10.62;47.84;93867.94;4973162;28;20327;-82
2023/04/12 18:15:49;;;;;;;14.00;8.57;;;;;;;10.60;46.99;93872.59;5007364;28;20196;-81
2023/04/12 18:18:15;;;;;;;16.17;10.30;;;;;;;10.60;47.27;93882.19;5011362;28;20210;-81
2023/04/12 18:20:42;;;;;;;20.33;10.50;;;;;;;10.51;47.09;93876.63;4990984;28;20193;-80
2023/04/12 18:23:09;;;;;;;18.77;9.73;;;;;;;10.47;48.11;93879.94;4982616;28;20280;-80
2023/04/12 18:25:36;;;;;;;20.00;9.70;;;;;;;10.46;47.94;93880.94;4991223;28;20205;-81
2023/04/12 18:28:03;;;;;;;18.00;9.60;;;;;;;10.43;47.90;93884.00;5010284;28;20207;-78
2023/04/12 18:30:32;;;;;;;17.83;9.97;;;;;;;10.36;47.22;93878.97;4976074;28;20205;-78
2023/04/12 18:32:58;;;;;;;18.57;9.63;;;;;;;10.24;48.42;93879.03;4990774;28;20246;-78
2023/04/12 18:35:28;;;;;;;22.60;9.20;;;;;;;10.22;48.19;93880.28;4992510;28;20232;-79
2023/04/12 18:37:55;;;;;;;15.17;8.37;;;;;;;10.20;48.12;93884.94;5002049;28;20238;-78
2023/04/12 18:40:24;;;;;;;21.07;9.67;;;;;;;10.18;48.01;93885.19;4988514;28;20247;-80
2023/04/12 18:42:51;;;;;;;20.87;9.70;;;;;;;10.21;47.92;93886.53;4994681;28;20199;-79
2023/04/12 18:45:18;;;;;;;16.70;7.80;;;;;;;10.19;47.40;93885.94;4987635;28;20197;-78
2023/04/12 18:47:46;;;;;;;21.43;10.37;;;;;;;10.24;48.40;93886.81;4986376;28;20274;-77
2023/04/12 18:50:14;;;;;;;18.43;9.10;;;;;;;10.23;47.71;93885.28;4977183;28;20201;-79
2023/04/12 18:52:40;;;;;;;23.30;8.90;;;;;;;10.21;48.04;93883.94;4986709;28;20267;-79
2023/04/12 18:55:08;;;;;;;22.63;10.60;;;;;;;10.19;48.41;93888.56;4983378;28;20197;-79
2023/04/12 18:57:35;;;;;;;24.03;11.00;;;;;;;10.16;48.27;93889.03;4975624;28;20255;-79
2023/04/12 19:00:10;;;;;;;19.87;9.00;;;;;;;10.11;48.70;93888.91;4976956;28;20208;-80
2023/04/12 19:02:37;;;;;;;17.30;9.10;;;;;;;10.10;48.83;93887.34;4978926;28;20223;-82
2023/04/12 19:05:07;;;;;;;15.83;8.23;;;;;;;10.00;48.19;93893.16;4983586;28;20225;-80
2023/04/12 19:07:34;;;;;;;18.00;8.87;;;;;;;10.02;48.28;93891.09;4994835;28;20578;-81
2023/04/12 19:10:01;;;;;;;16.93;9.07;;;;;;;10.06;48.27;93907.00;4996257;28;20239;-80
2023/04/12 19:12:28;;;;;;;10.40;5.80;;;;;;;10.02;48.29;93893.69;4994834;28;20199;-80